Terminal Aerodrome Forecast
Issued by NWS Blacksburg, VA

Current Version | Previous Version | Text Only | Print | Product List | Glossary Off
Versions: 1 2 3 4 5 6 7 8 9 10 11 12 13 14 15 16 17 18 19 20 21 22 23 24 25 26 27

000
FTUS41 KRNK 251720
TAFBLF
TAF
KBLF 251720Z 2518/2618 29010G20KT P6SM BKN025
     FM260000 26006KT P6SM SCT025
     FM260300 25005KT P6SM BKN015
     FM260800 24005KT P6SM SKC=

USA.gov is the U.S. government's official web portal to all federal, state and local government web resources and services.